Time;durP1;ratioP1;P1;durP2;ratioP2;P2;SDS_P1;SDS_P2;PMS_P1;PMS_P2;Temp;Humidity;BMP_temperature;BMP_pressure;BME280_temperature;BME280_humidity;BME280_pressure;Samples;Min_cycle;Max_cycle;Signal;HPM_P1;HPM_P2
2023/04/13 00:02:26;;;;;;;;;;;7.50;99.90;;;;;;5097432;28;19982;-68
2023/04/13 00:04:53;;;;;;;;;;;7.40;99.90;;;;;;5094346;28;19931;-67
2023/04/13 00:07:21;;;;;;;;;;;7.40;99.90;;;;;;5094307;28;19930;-67
2023/04/13 00:09:49;;;;;;;;;;;7.40;99.90;;;;;;5092154;28;19930;-69
2023/04/13 00:12:17;;;;;;;;;;;7.40;99.90;;;;;;5097987;28;19927;-68
2023/04/13 00:14:44;;;;;;;;;;;7.50;99.90;;;;;;5101190;28;19929;-69
2023/04/13 00:17:12;;;;;;;;;;;7.50;99.90;;;;;;5102543;28;19927;-67
2023/04/13 00:19:40;;;;;;;;;;;7.60;99.90;;;;;;5093734;28;19946;-68
2023/04/13 00:22:08;;;;;;;;;;;7.60;99.90;;;;;;5096894;28;19981;-68
2023/04/13 00:24:35;;;;;;;;;;;7.00;99.90;;;;;;5093448;28;19928;-68
2023/04/13 00:27:03;;;;;;;;;;;7.50;99.90;;;;;;5094453;28;19924;-67
2023/04/13 00:29:30;;;;;;;;;;;7.50;99.90;;;;;;5091594;28;19924;-68
2023/04/13 00:31:57;;;;;;;;;;;7.50;99.90;;;;;;5101649;28;19924;-67
2023/04/13 00:34:26;;;;;;;;;;;7.40;99.90;;;;;;5095957;28;19928;-68
2023/04/13 00:36:52;;;;;;;;;;;7.50;99.90;;;;;;5094779;28;19924;-67
2023/04/13 00:39:21;;;;;;;;;;;7.40;99.90;;;;;;5096024;28;19928;-67
2023/04/13 00:41:48;;;;;;;;;;;7.40;99.90;;;;;;5086614;28;19924;-68
2023/04/13 00:44:18;;;;;;;;;;;7.40;99.90;;;;;;5098110;28;19924;-68
2023/04/13 00:46:46;;;;;;;;;;;7.30;99.90;;;;;;5100049;28;19928;-68
2023/04/13 00:49:13;;;;;;;;;;;7.30;99.90;;;;;;5096437;28;20433;-68
2023/04/13 00:51:43;;;;;;;;;;;7.30;99.90;;;;;;5100556;28;19924;-68
2023/04/13 00:54:12;;;;;;;;;;;7.30;99.90;;;;;;5096473;28;19924;-69
2023/04/13 00:56:41;;;;;;;;;;;7.30;99.90;;;;;;5094361;28;20321;-68
2023/04/13 00:59:08;;;;;;;;;;;7.30;99.90;;;;;;5097318;28;20011;-68
2023/04/13 01:01:45;;;;;;;;;;;7.30;99.90;;;;;;5093289;28;19928;-67
2023/04/13 01:04:12;;;;;;;;;;;7.30;99.90;;;;;;5102665;28;19924;-68
2023/04/13 01:06:43;;;;;;;;;;;7.30;99.90;;;;;;5102084;28;19924;-68
2023/04/13 01:09:15;;;;;;;;;;;7.40;99.90;;;;;;5097424;28;20026;-68
2023/04/13 01:11:43;;;;;;;;;;;7.40;99.90;;;;;;5092229;28;19925;-67
2023/04/13 01:14:12;;;;;;;;;;;7.40;99.90;;;;;;5096665;28;19932;-68
2023/04/13 01:16:42;;;;;;;;;;;7.40;99.90;;;;;;5101259;28;20022;-67
2023/04/13 01:19:11;;;;;;;;;;;7.30;99.90;;;;;;5102502;28;20410;-68
2023/04/13 01:21:39;;;;;;;;;;;7.30;99.90;;;;;;5093091;28;20395;-68
2023/04/13 01:24:15;;;;;;;;;;;7.30;99.90;;;;;;5102864;28;19930;-69
2023/04/13 01:27:04;;;;;;;;;;;7.40;99.90;;;;;;5093763;28;19950;-67
2023/04/13 01:29:33;;;;;;;;;;;7.10;99.90;;;;;;5096376;28;20522;-68
2023/04/13 01:32:01;;;;;;;;;;;7.40;99.90;;;;;;5093078;28;19925;-66
2023/04/13 01:34:28;;;;;;;;;;;7.50;99.90;;;;;;5088361;28;19928;-68
2023/04/13 01:36:56;;;;;;;;;;;7.40;99.90;;;;;;5089917;28;19946;-68
2023/04/13 01:39:24;;;;;;;;;;;7.60;99.90;;;;;;5094522;28;19924;-68
2023/04/13 01:41:59;;;;;;;;;;;7.60;99.90;;;;;;5092065;28;19930;-67
2023/04/13 01:44:28;;;;;;;;;;;7.60;99.90;;;;;;5099776;28;19924;-69
2023/04/13 01:47:00;;;;;;;;;;;7.60;99.90;;;;;;5093758;28;19932;-68
2023/04/13 01:50:07;;;;;;;;;;;7.70;99.90;;;;;;5084874;28;19931;-68
2023/04/13 01:53:00;;;;;;;;;;;7.70;99.90;;;;;;5102134;28;19970;-68
2023/04/13 01:55:29;;;;;;;;;;;7.70;99.90;;;;;;5102353;28;20398;-68
2023/04/13 01:57:58;;;;;;;;;;;7.70;99.90;;;;;;5095584;28;19973;-67
2023/04/13 02:00:30;;;;;;;;;;;7.70;99.90;;;;;;5102295;28;19962;-70
2023/04/13 02:02:59;;;;;;;;;;;7.60;99.90;;;;;;5101693;28;20268;-69
2023/04/13 02:05:26;;;;;;;;;;;7.60;99.90;;;;;;5102439;28;19977;-69
2023/04/13 02:07:53;;;;;;;;;;;7.50;99.90;;;;;;5099382;28;19931;-68
2023/04/13 02:10:21;;;;;;;;;;;7.40;99.90;;;;;;5102375;28;19928;-68
2023/04/13 02:12:48;;;;;;;;;;;7.40;99.90;;;;;;5101863;28;19960;-69
2023/04/13 02:15:15;;;;;;;;;;;7.30;99.90;;;;;;5094982;28;19924;-68
2023/04/13 02:17:43;;;;;;;;;;;7.30;99.90;;;;;;5095926;28;19924;-68
2023/04/13 02:20:12;;;;;;;;;;;7.30;99.90;;;;;;5094635;28;19931;-69
2023/04/13 02:22:40;;;;;;;;;;;7.40;99.90;;;;;;5102556;28;19924;-69
2023/04/13 02:25:10;;;;;;;;;;;7.40;99.90;;;;;;5102035;28;20031;-68
2023/04/13 02:27:38;;;;;;;;;;;7.30;99.90;;;;;;5103293;28;19928;-66
2023/04/13 02:30:06;;;;;;;;;;;7.30;99.90;;;;;;5106466;28;19931;-68
2023/04/13 02:32:33;;;;;;;;;;;;;;;;;;5103315;28;19971;-69
2023/04/13 02:35:00;;;;;;;;;;;7.30;99.90;;;;;;5105510;28;19924;-68
2023/04/13 02:37:31;;;;;;;;;;;7.30;99.90;;;;;;5103076;28;19937;-67
2023/04/13 02:39:58;;;;;;;;;;;7.40;99.90;;;;;;5100402;28;19974;-69
2023/04/13 02:42:26;;;;;;;;;;;7.40;99.90;;;;;;5103954;28;20006;-68
2023/04/13 02:44:53;;;;;;;;;;;;;;;;;;5101122;28;19924;-68
2023/04/13 02:47:20;;;;;;;;;;;7.30;99.90;;;;;;5105035;28;19971;-68
2023/04/13 02:49:47;;;;;;;;;;;7.40;99.90;;;;;;5103449;28;20023;-68
2023/04/13 02:52:24;;;;;;;;;;;7.40;99.90;;;;;;5104991;28;19931;-66
2023/04/13 02:55:04;;;;;;;;;;;7.30;99.90;;;;;;5103884;28;20012;-69
2023/04/13 02:57:43;;;;;;;;;;;7.40;99.90;;;;;;5102786;28;19924;-69
2023/04/13 03:00:12;;;;;;;;;;;7.90;99.90;;;;;;5099446;28;19924;-66
2023/04/13 03:02:47;;;;;;;;;;;7.30;99.90;;;;;;5096183;28;20379;-68
2023/04/13 03:05:18;;;;;;;;;;;7.20;99.90;;;;;;5095884;28;19955;-68
2023/04/13 03:07:45;;;;;;;;;;;7.20;99.90;;;;;;5103615;28;19931;-69
2023/04/13 03:10:13;;;;;;;;;;;7.20;99.90;;;;;;5101414;28;20282;-69
2023/04/13 03:12:43;;;;;;;;;;;;;;;;;;5101252;28;20342;-67
2023/04/13 03:15:11;;;;;;;;;;;7.10;99.90;;;;;;5101044;28;19924;-69
2023/04/13 03:17:40;;;;;;;;;;;7.00;99.90;;;;;;5085939;28;19925;-69
2023/04/13 03:20:12;;;;;;;;;;;7.10;99.90;;;;;;5104915;28;20007;-69
2023/04/13 03:22:43;;;;;;;;;;;;;;;;;;5100713;28;19931;-68
2023/04/13 03:25:10;;;;;;;;;;;7.30;99.90;;;;;;5102364;28;19946;-68
2023/04/13 03:27:40;;;;;;;;;;;7.10;99.90;;;;;;5101865;28;19967;-69
2023/04/13 03:30:08;;;;;;;;;;;7.10;99.90;;;;;;5090494;28;19924;-70
2023/04/13 03:32:45;;;;;;;;;;;7.20;99.90;;;;;;5102911;28;20307;-69
2023/04/13 03:35:12;;;;;;;;;;;;;;;;;;5104051;28;20343;-69
2023/04/13 03:37:41;;;;;;;;;;;7.20;99.90;;;;;;5098242;28;19932;-67
2023/04/13 03:40:17;;;;;;;;;;;;;;;;;;5104245;28;19924;-67
2023/04/13 03:42:51;;;;;;;;;;;7.30;99.90;;;;;;5100283;28;19977;-67
2023/04/13 03:45:19;;;;;;;;;;;7.20;99.90;;;;;;5103431;28;19931;-67
2023/04/13 03:47:46;;;;;;;;;;;7.10;99.90;;;;;;5096155;28;19924;-68
2023/04/13 03:50:13;;;;;;;;;;;7.10;99.90;;;;;;5091252;28;19928;-68
2023/04/13 03:52:40;;;;;;;;;;;7.00;99.90;;;;;;5097591;28;19930;-68
2023/04/13 03:55:08;;;;;;;;;;;7.00;99.90;;;;;;5097895;28;19953;-67
2023/04/13 03:57:37;;;;;;;;;;;7.00;99.90;;;;;;5101129;28;19930;-67
2023/04/13 04:00:12;;;;;;;;;;;6.90;99.90;;;;;;5099064;28;20306;-69
2023/04/13 04:02:57;;;;;;;;;;;6.90;99.90;;;;;;5102116;28;20302;-66
2023/04/13 04:05:31;;;;;;;;;;;6.90;99.90;;;;;;5103720;28;19924;-69
2023/04/13 04:08:04;;;;;;;;;;;6.80;99.90;;;;;;5088950;28;19928;-67
2023/04/13 04:10:31;;;;;;;;;;;6.90;99.90;;;;;;5094201;28;20440;-66
2023/04/13 04:12:59;;;;;;;;;;;6.90;99.90;;;;;;5102625;28;19986;-68
2023/04/13 04:15:29;;;;;;;;;;;6.90;99.90;;;;;;5099722;28;20006;-71
2023/04/13 04:18:03;;;;;;;;;;;7.00;99.90;;;;;;5103127;28;19981;-68
2023/04/13 04:20:31;;;;;;;;;;;7.00;99.90;;;;;;5090909;28;19923;-67
2023/04/13 04:23:00;;;;;;;;;;;6.90;99.90;;;;;;5092014;28;19930;-68
2023/04/13 04:25:31;;;;;;;;;;;6.90;99.90;;;;;;5092647;28;19935;-67
2023/04/13 04:28:01;;;;;;;;;;;7.00;99.90;;;;;;5095623;28;19934;-68
2023/04/13 04:30:32;;;;;;;;;;;6.90;99.90;;;;;;5091818;28;19978;-69
2023/04/13 04:33:00;;;;;;;;;;;6.90;99.90;;;;;;5091201;28;19928;-68
2023/04/13 04:35:34;;;;;;;;;;;6.90;99.90;;;;;;5092686;28;19977;-67
2023/04/13 04:38:04;;;;;;;;;;;6.90;99.90;;;;;;5092290;28;20390;-68
2023/04/13 04:40:34;;;;;;;;;;;6.90;99.90;;;;;;5095993;28;19924;-68
2023/04/13 04:43:03;;;;;;;;;;;7.00;99.90;;;;;;5093257;28;20378;-68
2023/04/13 04:45:40;;;;;;;;;;;7.00;99.90;;;;;;5096393;28;19924;-66
2023/04/13 04:48:07;;;;;;;;;;;7.00;99.90;;;;;;5096514;28;19930;-67
2023/04/13 04:50:36;;;;;;;;;;;7.00;99.90;;;;;;5091974;28;19928;-67
2023/04/13 04:53:09;;;;;;;;;;;6.90;99.90;;;;;;5092864;28;20268;-68
2023/04/13 04:55:36;;;;;;;;;;;6.90;99.90;;;;;;5088734;28;19925;-68
2023/04/13 04:58:03;;;;;;;;;;;6.90;99.90;;;;;;5096233;28;19927;-68
2023/04/13 05:00:31;;;;;;;;;;;6.90;99.90;;;;;;5089809;28;19933;-66
2023/04/13 05:03:10;;;;;;;;;;;6.80;99.90;;;;;;5082398;28;19924;-68
2023/04/13 05:05:40;;;;;;;;;;;6.80;99.90;;;;;;5083405;28;20391;-68
2023/04/13 05:08:12;;;;;;;;;;;6.70;99.90;;;;;;5088553;28;20275;-67
2023/04/13 05:10:44;;;;;;;;;;;6.70;99.90;;;;;;5078930;28;20023;-67
2023/04/13 05:13:11;;;;;;;;;;;6.70;99.90;;;;;;5082158;28;19932;-68
2023/04/13 05:15:39;;;;;;;;;;;6.70;99.90;;;;;;5090347;28;19958;-66
2023/04/13 05:18:06;;;;;;;;;;;6.70;99.90;;;;;;5089381;28;20023;-67
2023/04/13 05:20:36;;;;;;;;;;;6.70;99.90;;;;;;5083097;28;19986;-68
2023/04/13 05:23:05;;;;;;;;;;;6.70;99.90;;;;;;5084414;28;19931;-68
2023/04/13 05:25:38;;;;;;;;;;;6.70;99.90;;;;;;5090115;28;20401;-67
2023/04/13 05:28:09;;;;;;;;;;;6.70;99.90;;;;;;5095160;28;19974;-68
2023/04/13 05:30:36;;;;;;;;;;;6.70;99.90;;;;;;5096855;28;20307;-67
2023/04/13 05:33:06;;;;;;;;;;;6.70;99.90;;;;;;5093443;28;19960;-68
2023/04/13 05:35:38;;;;;;;;;;;6.70;99.90;;;;;;5090520;28;19924;-68
2023/04/13 05:38:06;;;;;;;;;;;6.70;99.90;;;;;;5092915;28;19924;-68
2023/04/13 05:40:34;;;;;;;;;;;6.70;99.90;;;;;;5088907;28;19931;-66
2023/04/13 05:43:03;;;;;;;;;;;6.80;99.90;;;;;;5094474;28;19931;-68
2023/04/13 05:45:33;;;;;;;;;;;6.70;99.90;;;;;;5085354;28;20272;-66
2023/04/13 05:48:07;;;;;;;;;;;6.70;99.90;;;;;;5091739;28;19924;-68
2023/04/13 05:50:34;;;;;;;;;;;6.70;99.90;;;;;;5087141;28;19963;-67
2023/04/13 05:53:04;;;;;;;;;;;6.70;99.90;;;;;;5100429;28;19963;-66
2023/04/13 05:55:42;;;;;;;;;;;6.80;99.90;;;;;;5096253;28;19947;-67
2023/04/13 05:58:09;;;;;;;;;;;6.90;99.90;;;;;;5090048;28;19932;-68
2023/04/13 06:00:37;;;;;;;;;;;6.90;99.90;;;;;;5097193;28;19931;-67
2023/04/13 06:03:08;;;;;;;;;;;7.00;99.90;;;;;;5093226;28;20433;-67
2023/04/13 06:05:35;;;;;;;;;;;7.10;99.90;;;;;;5098889;28;19935;-67
2023/04/13 06:08:03;;;;;;;;;;;7.20;99.90;;;;;;5097331;28;19930;-67
2023/04/13 06:10:30;;;;;;;;;;;7.20;99.90;;;;;;5091588;28;19928;-67
2023/04/13 06:12:57;;;;;;;;;;;7.40;99.90;;;;;;5094190;28;20395;-68
2023/04/13 06:15:24;;;;;;;;;;;7.50;99.90;;;;;;5090990;28;19925;-66
2023/04/13 06:17:51;;;;;;;;;;;7.40;99.90;;;;;;5090454;28;19928;-67
2023/04/13 06:20:18;;;;;;;;;;;7.40;99.90;;;;;;5093053;28;20325;-67
2023/04/13 06:22:45;;;;;;;;;;;7.40;99.90;;;;;;5094781;28;19935;-64
2023/04/13 06:25:15;;;;;;;;;;;7.40;99.90;;;;;;5090788;28;19924;-66
2023/04/13 06:27:45;;;;;;;;;;;7.40;99.90;;;;;;5095790;28;20030;-65
2023/04/13 06:30:12;;;;;;;;;;;7.50;99.90;;;;;;5099520;28;19963;-67
2023/04/13 06:32:39;;;;;;;;;;;7.50;99.90;;;;;;5086252;28;19924;-67
2023/04/13 06:35:07;;;;;;;;;;;7.60;99.90;;;;;;5101417;28;19989;-67
2023/04/13 06:37:40;;;;;;;;;;;7.60;99.90;;;;;;5101946;28;19930;-67
2023/04/13 06:40:11;;;;;;;;;;;8.00;99.90;;;;;;5097607;28;19960;-66
2023/04/13 06:42:43;;;;;;;;;;;7.70;99.90;;;;;;5104869;28;20394;-67
2023/04/13 06:45:30;;;;;;;;;;;7.70;99.90;;;;;;5101038;28;20005;-67
2023/04/13 06:48:00;;;;;;;;;;;7.70;99.90;;;;;;5104868;28;19931;-67
2023/04/13 06:50:29;;;;;;;;;;;7.90;99.90;;;;;;5100097;28;19931;-67
2023/04/13 06:53:00;;;;;;;;;;;8.00;99.90;;;;;;5099804;28;19931;-67
2023/04/13 06:55:26;;;;;;;;;;;8.10;99.90;;;;;;5103616;28;20011;-65
2023/04/13 06:57:55;;;;;;;;;;;8.10;99.90;;;;;;5100528;28;19924;-67
2023/04/13 07:00:21;;;;;;;;;;;8.10;99.90;;;;;;5093025;28;19928;-68
2023/04/13 07:02:48;;;;;;;;;;;8.20;99.90;;;;;;5102028;28;19924;-65
2023/04/13 07:05:18;;;;;;;;;;;8.20;99.90;;;;;;5094736;28;19924;-67
2023/04/13 07:07:48;;;;;;;;;;;8.10;99.90;;;;;;5099564;28;19964;-67
2023/04/13 07:10:15;;;;;;;;;;;8.20;99.90;;;;;;5092646;28;19924;-67
2023/04/13 07:12:43;;;;;;;;;;;8.30;99.90;;;;;;5100860;28;19924;-67
2023/04/13 07:15:11;;;;;;;;;;;8.30;99.90;;;;;;5099447;28;20026;-65
2023/04/13 07:17:38;;;;;;;;;;;8.80;99.90;;;;;;5091506;28;19935;-66
2023/04/13 07:20:06;;;;;;;;;;;8.60;99.90;;;;;;5103186;28;20306;-65
2023/04/13 07:22:34;;;;;;;;;;;8.60;99.90;;;;;;5096047;28;19928;-67
2023/04/13 07:25:00;;;;;;;;;;;8.50;99.90;;;;;;5103363;28;19924;-67
2023/04/13 07:27:28;;;;;;;;;;;8.80;99.90;;;;;;5095107;28;19964;-67
2023/04/13 07:29:55;;;;;;;;;;;8.30;99.90;;;;;;5092698;28;19924;-66
2023/04/13 07:32:27;;;;;;;;;;;8.60;99.90;;;;;;5100463;28;19923;-67
2023/04/13 07:34:58;;;;;;;;;;;8.60;99.90;;;;;;5091329;28;19924;-67
2023/04/13 07:37:25;;;;;;;;;;;8.70;99.90;;;;;;5092404;28;19924;-65
2023/04/13 07:39:52;;;;;;;;;;;8.70;99.90;;;;;;5102135;28;19928;-67
2023/04/13 07:42:22;;;;;;;;;;;8.70;99.90;;;;;;5096811;28;20022;-67
2023/04/13 07:44:54;;;;;;;;;;;8.60;99.90;;;;;;5092797;28;19924;-67
2023/04/13 07:47:21;;;;;;;;;;;8.70;99.90;;;;;;5098423;28;19923;-66
2023/04/13 07:49:50;;;;;;;;;;;8.60;99.90;;;;;;5101183;28;19931;-67
2023/04/13 07:52:20;;;;;;;;;;;8.70;99.90;;;;;;5098398;28;19945;-67
2023/04/13 07:54:48;;;;;;;;;;;8.70;99.90;;;;;;5096725;28;19924;-67
2023/04/13 07:57:16;;;;;;;;;;;8.70;99.90;;;;;;5090351;28;20387;-67
2023/04/13 07:59:48;;;;;;;;;;;;;;;;;;5100084;28;19924;-68
2023/04/13 08:02:17;;;;;;;;;;;8.80;99.90;;;;;;5086415;28;19970;-67
2023/04/13 08:04:46;;;;;;;;;;;8.90;99.90;;;;;;5098333;28;19925;-67
2023/04/13 08:07:21;;;;;;;;;;;8.90;99.90;;;;;;5087974;28;19932;-67
2023/04/13 08:09:51;;;;;;;;;;;9.00;99.90;;;;;;5091366;28;19925;-67
2023/04/13 08:12:18;;;;;;;;;;;9.10;99.90;;;;;;5095339;28;19924;-66
2023/04/13 08:14:46;;;;;;;;;;;9.10;99.90;;;;;;5090353;28;19924;-67
2023/04/13 08:17:13;;;;;;;;;;;9.10;99.90;;;;;;5093222;28;20026;-68
2023/04/13 08:19:41;;;;;;;;;;;9.00;99.90;;;;;;5086615;28;19924;-68
2023/04/13 08:22:12;;;;;;;;;;;8.90;99.90;;;;;;5096912;28;20339;-68
2023/04/13 08:24:40;;;;;;;;;;;9.00;99.90;;;;;;5094167;28;19924;-67
2023/04/13 08:27:07;;;;;;;;;;;9.10;99.90;;;;;;5084605;28;19924;-66
2023/04/13 08:29:34;;;;;;;;;;;9.10;99.90;;;;;;5097845;28;19928;-65
2023/04/13 08:32:01;;;;;;;;;;;9.10;99.90;;;;;;5088887;28;19924;-66
2023/04/13 08:34:29;;;;;;;;;;;9.20;99.90;;;;;;5090475;28;20003;-65
2023/04/13 08:36:56;;;;;;;;;;;9.20;99.90;;;;;;5102388;28;19931;-64
2023/04/13 08:39:26;;;;;;;;;;;9.30;99.90;;;;;;5091330;28;20363;-66
2023/04/13 08:41:55;;;;;;;;;;;9.20;99.90;;;;;;5090921;28;19931;-64
2023/04/13 08:44:26;;;;;;;;;;;9.10;99.90;;;;;;5086111;28;19924;-66
2023/04/13 08:46:53;;;;;;;;;;;8.90;99.90;;;;;;5090679;28;20020;-65
2023/04/13 08:49:25;;;;;;;;;;;8.90;99.90;;;;;;5093441;28;19956;-66
2023/04/13 08:52:15;;;;;;;;;;;8.80;99.90;;;;;;5086939;28;19935;-65
2023/04/13 08:54:43;;;;;;;;;;;8.80;99.90;;;;;;5097547;28;20027;-66
2023/04/13 08:57:19;;;;;;;;;;;8.90;99.90;;;;;;5087905;28;19924;-67
2023/04/13 08:59:47;;;;;;;;;;;9.00;99.90;;;;;;5098794;28;19924;-67
2023/04/13 09:02:14;;;;;;;;;;;9.20;99.90;;;;;;5097480;28;19977;-65
2023/04/13 09:04:53;;;;;;;;;;;9.30;99.90;;;;;;5093481;28;19923;-66
2023/04/13 09:07:25;;;;;;;;;;;9.50;99.90;;;;;;5091640;28;19940;-66
2023/04/13 09:09:54;;;;;;;;;;;9.60;99.90;;;;;;5089347;28;19968;-67
2023/04/13 09:12:22;;;;;;;;;;;9.60;99.90;;;;;;5094569;28;19932;-68
2023/04/13 09:14:49;;;;;;;;;;;9.60;99.90;;;;;;5088212;28;20014;-66
2023/04/13 09:17:24;;;;;;;;;;;9.60;99.90;;;;;;5096887;28;20014;-67
2023/04/13 09:19:52;;;;;;;;;;;9.60;99.90;;;;;;5088432;28;19959;-67
2023/04/13 09:22:20;;;;;;;;;;;9.60;99.90;;;;;;5089355;28;19964;-66
2023/04/13 09:24:47;;;;;;;;;;;9.80;99.90;;;;;;5092486;28;19924;-67
2023/04/13 09:27:17;;;;;;;;;;;9.90;99.90;;;;;;5093705;28;19928;-66
2023/04/13 09:29:50;;;;;;;;;;;10.10;99.90;;;;;;5086338;28;19963;-66
2023/04/13 09:32:21;;;;;;;;;;;10.00;99.90;;;;;;5082845;28;20377;-66
2023/04/13 09:34:57;;;;;;;;;;;9.90;99.90;;;;;;5090077;28;19932;-66
2023/04/13 09:37:23;;;;;;;;;;;10.10;99.90;;;;;;5100316;28;19960;-66
2023/04/13 09:39:50;;;;;;;;;;;10.00;99.90;;;;;;5093157;28;19933;-65
2023/04/13 09:42:18;;;;;;;;;;;9.90;99.90;;;;;;5093954;28;19924;-66
2023/04/13 09:44:57;;;;;;;;;;;9.90;99.90;;;;;;5094917;28;19924;-65
2023/04/13 09:47:23;;;;;;;;;;;10.00;99.90;;;;;;5092284;28;19956;-66
2023/04/13 09:49:50;;;;;;;;;;;10.00;99.90;;;;;;5089525;28;19928;-66
2023/04/13 09:52:21;;;;;;;;;;;10.30;99.90;;;;;;5098379;28;20018;-67
2023/04/13 09:54:51;;;;;;;;;;;10.50;99.90;;;;;;5092269;28;19924;-66
2023/04/13 09:57:25;;;;;;;;;;;10.50;99.90;;;;;;5093796;28;19924;-66
2023/04/13 09:59:52;;;;;;;;;;;10.80;99.90;;;;;;5101435;28;19924;-66
2023/04/13 10:02:21;;;;;;;;;;;11.00;99.90;;;;;;5089155;28;19931;-66
2023/04/13 10:04:48;;;;;;;;;;;11.00;99.90;;;;;;5101394;28;19977;-66
2023/04/13 10:07:15;;;;;;;;;;;10.90;99.90;;;;;;5094080;28;20056;-66
2023/04/13 10:09:43;;;;;;;;;;;11.00;99.90;;;;;;5096621;28;19931;-66
2023/04/13 10:12:12;;;;;;;;;;;11.20;99.90;;;;;;5100298;28;20026;-66
2023/04/13 10:14:42;;;;;;;;;;;11.30;99.90;;;;;;5096323;28;19925;-65
2023/04/13 10:17:18;;;;;;;;;;;11.20;99.90;;;;;;5097714;28;20023;-66
2023/04/13 10:19:47;;;;;;;;;;;11.00;99.90;;;;;;5089543;28;19928;-65
2023/04/13 10:22:15;;;;;;;;;;;10.80;99.90;;;;;;5093965;28;19932;-64
2023/04/13 10:24:42;;;;;;;;;;;10.60;99.90;;;;;;5091929;28;19931;-67
2023/04/13 10:27:13;;;;;;;;;;;10.70;99.90;;;;;;5096528;28;19924;-66
2023/04/13 10:29:40;;;;;;;;;;;10.90;99.90;;;;;;5090374;28;19924;-66
2023/04/13 10:32:07;;;;;;;;;;;10.90;99.90;;;;;;5103782;28;20279;-66
2023/04/13 10:34:34;;;;;;;;;;;10.90;99.90;;;;;;5092949;28;19993;-65
2023/04/13 10:37:05;;;;;;;;;;;10.70;99.90;;;;;;5105259;28;19924;-64
2023/04/13 10:39:33;;;;;;;;;;;10.90;99.90;;;;;;5101969;28;19924;-65
2023/04/13 10:42:00;;;;;;;;;;;11.00;99.90;;;;;;5094551;28;19969;-67
2023/04/13 10:44:27;;;;;;;;;;;10.90;99.90;;;;;;5106090;28;19978;-67
2023/04/13 10:46:54;;;;;;;;;;;10.80;99.90;;;;;;5104923;28;20390;-66
2023/04/13 10:49:30;;;;;;;;;;;10.80;99.90;;;;;;5094995;28;19928;-68
2023/04/13 10:51:57;;;;;;;;;;;10.90;99.90;;;;;;5090014;28;19924;-66
2023/04/13 10:54:28;;;;;;;;;;;11.00;99.90;;;;;;5102417;28;19939;-67
2023/04/13 10:56:55;;;;;;;;;;;11.10;99.90;;;;;;5091197;28;19953;-65
2023/04/13 10:59:22;;;;;;;;;;;11.20;99.90;;;;;;5092687;28;19958;-66
2023/04/13 11:01:49;;;;;;;;;;;11.10;99.90;;;;;;5105451;28;20031;-66
2023/04/13 11:04:17;;;;;;;;;;;11.20;99.90;;;;;;5103273;28;19924;-66
2023/04/13 11:06:43;;;;;;;;;;;11.20;99.90;;;;;;5105696;28;19924;-66
2023/04/13 11:09:11;;;;;;;;;;;11.30;99.90;;;;;;5103500;28;19923;-66
2023/04/13 11:11:42;;;;;;;;;;;11.20;99.90;;;;;;5101652;28;19924;-63
2023/04/13 11:14:09;;;;;;;;;;;11.60;99.90;;;;;;5098905;28;19924;-67
2023/04/13 11:16:43;;;;;;;;;;;11.80;99.90;;;;;;5091950;28;19928;-66
2023/04/13 11:19:10;;;;;;;;;;;11.90;99.90;;;;;;5101381;28;19924;-65
2023/04/13 11:21:37;;;;;;;;;;;12.30;99.90;;;;;;5089035;28;19939;-66
2023/04/13 11:24:04;;;;;;;;;;;12.40;99.90;;;;;;5094991;28;19930;-67
2023/04/13 11:26:31;;;;;;;;;;;12.80;99.90;;;;;;5094689;28;19925;-64
2023/04/13 11:29:00;;;;;;;;;;;13.10;99.90;;;;;;5095281;28;20320;-64
2023/04/13 11:31:35;;;;;;;;;;;13.00;99.90;;;;;;5088406;28;19935;-66
2023/04/13 11:34:04;;;;;;;;;;;13.30;99.90;;;;;;5106540;27;19925;-67
2023/04/13 11:36:31;;;;;;;;;;;13.00;99.90;;;;;;5093442;28;20296;-65
2023/04/13 11:38:59;;;;;;;;;;;14.40;99.90;;;;;;5087472;28;20276;-66
2023/04/13 11:41:27;;;;;;;;;;;15.50;99.90;;;;;;5088408;28;20295;-66
2023/04/13 11:43:54;;;;;;;;;;;16.90;99.90;;;;;;5085457;28;19924;-66
2023/04/13 11:46:23;;;;;;;;;;;17.90;99.90;;;;;;5096010;28;19977;-66
2023/04/13 11:48:51;;;;;;;;;;;18.20;99.90;;;;;;5095748;28;19924;-67
2023/04/13 11:51:18;;;;;;;;;;;18.60;99.90;;;;;;5090144;28;19924;-66
2023/04/13 11:53:45;;;;;;;;;;;17.90;99.90;;;;;;5090664;28;19924;-67
2023/04/13 11:56:13;;;;;;;;;;;17.40;99.90;;;;;;5087943;28;20302;-66
2023/04/13 11:58:41;;;;;;;;;;;16.50;99.90;;;;;;5085604;28;19992;-66
2023/04/13 12:01:08;;;;;;;;;;;14.50;99.90;;;;;;5092433;28;19932;-67
2023/04/13 12:03:38;;;;;;;;;;;13.90;99.90;;;;;;5089348;28;19956;-67
2023/04/13 12:06:05;;;;;;;;;;;13.70;99.90;;;;;;5103241;28;19924;-66
2023/04/13 12:08:32;;;;;;;;;;;13.50;99.90;;;;;;5081844;28;19924;-67
2023/04/13 12:11:02;;;;;;;;;;;13.70;99.90;;;;;;5089073;28;19924;-66
2023/04/13 12:13:38;;;;;;;;;;;13.40;99.90;;;;;;5086038;28;19924;-67
2023/04/13 12:16:05;;;;;;;;;;;14.40;99.90;;;;;;5089303;28;20417;-66
2023/04/13 12:18:32;;;;;;;;;;;16.40;99.90;;;;;;5086231;28;20411;-67
2023/04/13 12:21:01;;;;;;;;;;;17.80;99.90;;;;;;5095223;28;19924;-67
2023/04/13 12:23:28;;;;;;;;;;;16.60;99.90;;;;;;5094834;28;19982;-65
2023/04/13 12:25:56;;;;;;;;;;;16.90;99.90;;;;;;5087371;28;19927;-67
2023/04/13 12:28:22;;;;;;;;;;;16.70;99.90;;;;;;5098035;28;19924;-68
2023/04/13 12:30:49;;;;;;;;;;;17.70;99.90;;;;;;5094906;28;19928;-67
2023/04/13 12:33:16;;;;;;;;;;;17.20;99.90;;;;;;5097396;28;19924;-67
2023/04/13 12:35:43;;;;;;;;;;;17.80;99.90;;;;;;5099641;28;20336;-67
2023/04/13 12:38:11;;;;;;;;;;;16.40;99.90;;;;;;5081406;28;19936;-66
2023/04/13 12:40:37;;;;;;;;;;;15.90;99.90;;;;;;5091859;28;19942;-66
2023/04/13 12:43:04;;;;;;;;;;;15.80;99.90;;;;;;5088246;28;19988;-66
2023/04/13 12:45:31;;;;;;;;;;;15.20;99.90;;;;;;5080691;28;19928;-65
2023/04/13 12:47:58;;;;;;;;;;;14.00;99.90;;;;;;5087288;28;19928;-66
2023/04/13 12:50:25;;;;;;;;;;;14.50;99.90;;;;;;5085434;28;19931;-65
2023/04/13 12:52:53;;;;;;;;;;;15.90;99.90;;;;;;5071945;28;22039;-68
2023/04/13 12:55:21;;;;;;;;;;;16.20;99.90;;;;;;5087812;28;19930;-66
2023/04/13 12:57:48;;;;;;;;;;;17.00;99.90;;;;;;5086684;28;19928;-66
2023/04/13 13:00:16;;;;;;;;;;;17.40;99.90;;;;;;5081210;28;20433;-67
2023/04/13 13:02:43;;;;;;;;;;;18.30;99.90;;;;;;5084938;28;19928;-67
2023/04/13 13:05:09;;;;;;;;;;;18.60;99.90;;;;;;5087652;28;20301;-66
2023/04/13 13:07:36;;;;;;;;;;;19.00;99.90;;;;;;5082161;28;19936;-66
2023/04/13 13:10:03;;;;;;;;;;;18.70;99.90;;;;;;5097920;28;19924;-66
2023/04/13 13:12:31;;;;;;;;;;;18.70;99.90;;;;;;5094914;28;19924;-66
2023/04/13 13:15:00;;;;;;;;;;;18.00;99.90;;;;;;5100539;28;19924;-65
2023/04/13 13:17:27;;;;;;;;;;;17.60;99.90;;;;;;5100693;28;19956;-66
2023/04/13 13:19:54;;;;;;;;;;;18.10;99.90;;;;;;5091811;28;19924;-67
2023/04/13 13:22:20;;;;;;;;;;;18.80;99.90;;;;;;5095435;28;19974;-68
2023/04/13 13:24:47;;;;;;;;;;;18.20;99.90;;;;;;5088719;28;19967;-68
2023/04/13 13:27:14;;;;;;;;;;;18.80;99.90;;;;;;5101355;28;19924;-74
2023/04/13 13:29:43;;;;;;;;;;;18.20;99.90;;;;;;5082396;28;20268;-67
2023/04/13 13:32:10;;;;;;;;;;;17.50;99.90;;;;;;5088503;28;19924;-75
2023/04/13 13:34:37;;;;;;;;;;;16.80;99.90;;;;;;5098808;28;19932;-66
2023/04/13 13:37:04;;;;;;;;;;;15.90;99.90;;;;;;5101118;28;20291;-66
2023/04/13 13:39:31;;;;;;;;;;;15.90;99.90;;;;;;5103157;28;19955;-67
2023/04/13 13:41:58;;;;;;;;;;;16.20;99.90;;;;;;5106223;28;20382;-66
2023/04/13 13:44:25;;;;;;;;;;;16.70;99.90;;;;;;5104040;28;19928;-66
2023/04/13 13:46:53;;;;;;;;;;;17.20;99.90;;;;;;5098981;28;19924;-66
2023/04/13 13:49:23;;;;;;;;;;;17.40;99.90;;;;;;5105729;28;19935;-66
2023/04/13 13:52:07;;;;;;;;;;;17.20;99.90;;;;;;5093352;28;19928;-66
2023/04/13 13:54:42;;;;;;;;;;;17.80;99.90;;;;;;5106722;28;20014;-66
2023/04/13 13:57:09;;;;;;;;;;;18.00;99.90;;;;;;5100854;28;19924;-66
2023/04/13 13:59:35;;;;;;;;;;;17.80;99.90;;;;;;5097977;28;19924;-66
2023/04/13 14:02:04;;;;;;;;;;;18.00;99.90;;;;;;5105672;28;19931;-66
2023/04/13 14:04:30;;;;;;;;;;;17.50;99.90;;;;;;5104048;28;19931;-67
2023/04/13 14:06:57;;;;;;;;;;;18.20;99.90;;;;;;5097786;28;19934;-68
2023/04/13 14:09:24;;;;;;;;;;;19.10;99.90;;;;;;5095346;28;19932;-67
2023/04/13 14:11:51;;;;;;;;;;;19.60;99.90;;;;;;5101559;28;19924;-68
2023/04/13 14:14:17;;;;;;;;;;;18.70;99.90;;;;;;5101039;28;19927;-67
2023/04/13 14:16:44;;;;;;;;;;;18.60;99.90;;;;;;5090654;28;20386;-68
2023/04/13 14:19:12;;;;;;;;;;;19.40;99.90;;;;;;5092943;28;19924;-67
2023/04/13 14:21:41;;;;;;;;;;;19.00;99.90;;;;;;5089177;28;19924;-69
2023/04/13 14:24:08;;;;;;;;;;;18.80;99.90;;;;;;5079847;28;20028;-66
2023/04/13 14:26:37;;;;;;;;;;;19.60;99.90;;;;;;5095662;28;19924;-66
2023/04/13 14:29:03;;;;;;;;;;;18.90;99.90;;;;;;5093879;28;19986;-66
2023/04/13 14:31:30;;;;;;;;;;;17.30;99.90;;;;;;5098029;28;20399;-67
2023/04/13 14:33:57;;;;;;;;;;;17.00;99.90;;;;;;5110824;27;19933;-69
2023/04/13 14:36:25;;;;;;;;;;;17.90;99.90;;;;;;5099262;28;20340;-67
2023/04/13 14:38:53;;;;;;;;;;;18.50;99.90;;;;;;5096561;28;19931;-67
2023/04/13 14:41:20;;;;;;;;;;;19.10;99.90;;;;;;5087336;28;19931;-67